Time;durP1;ratioP1;P1;durP2;ratioP2;P2;SDS_P1;SDS_P2;PMS_P1;PMS_P2;Temp;Humidity;BMP_temperature;BMP_pressure;BME280_temperature;BME280_humidity;BME280_pressure;Samples;Min_cycle;Max_cycle;Signal;HPM_P1;HPM_P2
2022/11/16 00:00:23;;;;;;;0.00;0.00;;;;;;;;;;5116683;28;20232;-78
2022/11/16 00:02:53;;;;;;;0.00;0.00;;;;;;;;;;5118100;28;20222;-80
2022/11/16 00:05:22;;;;;;;0.00;0.00;;;;;;;;;;5119436;28;20182;-80
2022/11/16 00:07:55;;;;;;;0.00;0.00;;;;;;;;;;5116848;28;20225;-79
2022/11/16 00:10:24;;;;;;;0.00;0.00;;;;;;;;;;5120809;28;20185;-80
2022/11/16 00:12:52;;;;;;;0.00;0.00;;;;;;;;;;5120210;28;20221;-79
2022/11/16 00:15:21;;;;;;;0.00;0.00;;;;;;;;;;5120419;28;20213;-80
2022/11/16 00:17:49;;;;;;;0.00;0.00;;;;;;;;;;5118637;28;20193;-78
2022/11/16 00:20:19;;;;;;;0.00;0.00;;;;;;;;;;5120028;28;20225;-80
2022/11/16 00:22:48;;;;;;;0.00;0.00;;;;;;;;;;5120634;28;20217;-80
2022/11/16 00:25:16;;;;;;;0.00;0.00;;;;;;;;;;5121132;28;20213;-78
2022/11/16 00:27:45;;;;;;;0.00;0.00;;;;;;;;;;5102289;28;20191;-79
2022/11/16 00:30:13;;;;;;;0.00;0.00;;;;;;;;;;5100393;28;20206;-80
2022/11/16 00:32:42;;;;;;;0.00;0.00;;;;;;;;;;5099612;28;20218;-80
2022/11/16 00:35:10;;;;;;;0.00;0.00;;;;;;;;;;5100103;28;20182;-80
2022/11/16 00:37:40;;;;;;;0.00;0.00;;;;;;;;;;5112397;28;20202;-80
2022/11/16 00:40:09;;;;;;;0.00;0.00;;;;;;;;;;5121050;28;20204;-80
2022/11/16 00:42:38;;;;;;;0.00;0.00;;;;;;;;;;5120892;28;20210;-80
2022/11/16 00:45:07;;;;;;;0.00;0.00;;;;;;;;;;5120765;28;20188;-79
2022/11/16 00:47:35;;;;;;;0.00;0.00;;;;;;;;;;5108426;28;20246;-78
2022/11/16 00:50:04;;;;;;;0.00;0.00;;;;;;;;;;5099886;28;20183;-79
2022/11/16 00:52:33;;;;;;;0.00;0.00;;;;;;;;;;5113595;28;20243;-78
2022/11/16 00:55:03;;;;;;;0.00;0.00;;;;;;;;;;5106758;28;20186;-78
2022/11/16 00:57:31;;;;;;;0.00;0.00;;;;;;;;;;5099591;28;20197;-79
2022/11/16 01:00:00;;;;;;;0.00;0.00;;;;;;;;;;5098400;28;20203;-80
2022/11/16 01:02:28;;;;;;;0.00;0.00;;;;;;;;;;5099704;28;20219;-80
2022/11/16 01:04:57;;;;;;;0.00;0.00;;;;;;;;;;5099403;28;20198;-79
2022/11/16 01:07:25;;;;;;;0.00;0.00;;;;;;;;;;5099687;28;20209;-79
2022/11/16 01:09:54;;;;;;;0.00;0.00;;;;;;;;;;5116771;28;20197;-78
2022/11/16 01:12:22;;;;;;;0.00;0.00;;;;;;;;;;5113686;28;20232;-80
2022/11/16 01:14:51;;;;;;;0.00;0.00;;;;;;;;;;5118863;28;20236;-79
2022/11/16 01:17:19;;;;;;;0.00;0.00;;;;;;;;;;5107645;28;20224;-80
2022/11/16 01:19:48;;;;;;;0.00;0.00;;;;;;;;;;5081047;28;20198;-80
2022/11/16 01:22:20;;;;;;;0.00;0.00;;;;;;;;;;5093314;28;20234;-80
2022/11/16 01:24:49;;;;;;;0.00;0.00;;;;;;;;;;5098383;28;20186;-80
2022/11/16 01:27:31;;;;;;;0.00;0.00;;;;;;;;;;5099308;28;20206;-80
2022/11/16 01:30:16;;;;;;;0.00;0.00;;;;;;;;;;5097288;28;20210;-80
2022/11/16 01:32:45;;;;;;;0.00;0.00;;;;;;;;;;5098406;28;20206;-80
2022/11/16 01:35:16;;;;;;;0.00;0.00;;;;;;;;;;5098388;28;20206;-80
2022/11/16 01:37:45;;;;;;;0.00;0.00;;;;;;;;;;5110775;28;20193;-80
2022/11/16 01:40:14;;;;;;;0.00;0.00;;;;;;;;;;5118930;28;20198;-80
2022/11/16 01:42:42;;;;;;;0.00;0.00;;;;;;;;;;5119006;28;20205;-80
2022/11/16 01:45:22;;;;;;;0.00;0.00;;;;;;;;;;5113852;28;20187;-79
2022/11/16 01:47:51;;;;;;;0.00;0.00;;;;;;;;;;5099198;28;20167;-80
2022/11/16 01:50:20;;;;;;;0.00;0.00;;;;;;;;;;5099280;28;20201;-80
2022/11/16 01:52:53;;;;;;;0.00;0.00;;;;;;;;;;5098624;28;20206;-80
2022/11/16 01:55:23;;;;;;;0.00;0.00;;;;;;;;;;5098613;28;20199;-79
2022/11/16 01:57:52;;;;;;;0.00;0.00;;;;;;;;;;5098534;28;20207;-78
2022/11/16 02:00:22;;;;;;;0.00;0.00;;;;;;;;;;5097791;28;20536;-80
2022/11/16 02:02:51;;;;;;;0.00;0.00;;;;;;;;;;5097553;28;20218;-80
2022/11/16 02:05:21;;;;;;;0.00;0.00;;;;;;;;;;5098288;28;20195;-80
2022/11/16 02:10:55;;;;;;;0.00;0.00;;;;;;;;;;5095489;28;20175;-80
2022/11/16 02:13:34;;;;;;;0.00;0.00;;;;;;;;;;5095218;28;20221;-80
2022/11/16 02:16:06;;;;;;;0.00;0.00;;;;;;;;;;5095651;28;20202;-80
2022/11/16 02:18:38;;;;;;;0.00;0.00;;;;;;;;;;5096747;28;20186;-80
2022/11/16 02:21:10;;;;;;;0.00;0.00;;;;;;;;;;5093879;28;20211;-79
2022/11/16 02:23:59;;;;;;;0.00;0.00;;;;;;;;;;5093075;28;20222;-79
2022/11/16 02:26:35;;;;;;;0.00;0.00;;;;;;;;;;5081154;28;20209;-80
2022/11/16 02:29:23;;;;;;;0.00;0.00;;;;;;;;;;5089007;28;20217;-79
2022/11/16 02:35:29;;;;;;;0.00;0.00;;;;;;;;;;5077906;28;20213;-79
2022/11/16 02:38:31;;;;;;;0.00;0.00;;;;;;;;;;5077907;28;20182;-79
2022/11/16 02:41:35;;;;;;;0.00;0.00;;;;;;;;;;5077526;28;20237;-79
2022/11/16 02:51:45;;;;;;;0.00;0.00;;;;;;;;;;5018483;28;20204;-80
2022/11/16 03:22:38;;;;;;;0.00;0.00;;;;;;;;;;5075872;28;20287;-80
2022/11/16 03:25:23;;;;;;;0.00;0.00;;;;;;;;;;5095989;28;20228;-80
2022/11/16 03:27:58;;;;;;;0.00;0.00;;;;;;;;;;5103201;28;20206;-80
2022/11/16 03:30:51;;;;;;;0.00;0.00;;;;;;;;;;5095863;28;20206;-80
2022/11/16 03:33:25;;;;;;;0.00;0.00;;;;;;;;;;5094499;28;20206;-80
2022/11/16 03:35:56;;;;;;;0.00;0.00;;;;;;;;;;5093457;28;20744;-80
2022/11/16 03:38:27;;;;;;;0.00;0.00;;;;;;;;;;5087206;28;20191;-81
2022/11/16 03:41:01;;;;;;;0.00;0.00;;;;;;;;;;5084566;28;20229;-80
2022/11/16 03:43:33;;;;;;;0.00;0.00;;;;;;;;;;5087952;28;20244;-80
2022/11/16 03:46:04;;;;;;;0.00;0.00;;;;;;;;;;5086124;28;20189;-81
2022/11/16 03:48:58;;;;;;;0.00;0.00;;;;;;;;;;5081841;28;20170;-81
2022/11/16 03:51:27;;;;;;;0.00;0.00;;;;;;;;;;5083261;28;20664;-80
2022/11/16 03:53:55;;;;;;;0.00;0.00;;;;;;;;;;5080839;28;20211;-80
2022/11/16 03:56:25;;;;;;;0.00;0.00;;;;;;;;;;5080829;28;20686;-80
2022/11/16 03:58:54;;;;;;;0.00;0.00;;;;;;;;;;5099684;28;20244;-81
2022/11/16 04:01:22;;;;;;;0.00;0.00;;;;;;;;;;5100587;28;20706;-80
2022/11/16 04:03:51;;;;;;;0.00;0.00;;;;;;;;;;5100670;28;20256;-81
2022/11/16 04:25:47;;;;;;;0.00;0.00;;;;;;;;;;5095525;28;20582;-80
2022/11/16 04:28:17;;;;;;;0.00;0.00;;;;;;;;;;5096813;28;20198;-80
2022/11/16 04:39:05;;;;;;;0.00;0.00;;;;;;;;;;5096659;28;20233;-79
2022/11/16 04:44:21;;;;;;;0.00;0.00;;;;;;;;;;5096221;28;20666;-79
2022/11/16 04:47:05;;;;;;;0.00;0.00;;;;;;;;;;5096033;28;20178;-80
2022/11/16 04:49:33;;;;;;;0.00;0.00;;;;;;;;;;5096273;28;20225;-80
2022/11/16 04:52:02;;;;;;;0.00;0.00;;;;;;;;;;5096273;28;20258;-80
2022/11/16 04:54:30;;;;;;;0.00;0.00;;;;;;;;;;5096272;28;20202;-80
2022/11/16 04:56:59;;;;;;;0.00;0.00;;;;;;;;;;5095994;28;20241;-79
2022/11/16 04:59:29;;;;;;;0.00;0.00;;;;;;;;;;5095844;28;20251;-79
2022/11/16 05:02:09;;;;;;;0.00;0.00;;;;;;;;;;5095628;28;20632;-79
2022/11/16 05:04:39;;;;;;;0.00;0.00;;;;;;;;;;5095709;28;20217;-79
2022/11/16 05:07:09;;;;;;;0.00;0.00;;;;;;;;;;5095213;28;20248;-79
2022/11/16 05:09:41;;;;;;;0.00;0.00;;;;;;;;;;5095942;28;20646;-79
2022/11/16 05:12:10;;;;;;;0.00;0.00;;;;;;;;;;5095818;28;20626;-79
2022/11/16 05:14:40;;;;;;;0.00;0.00;;;;;;;;;;5095747;28;20229;-79
2022/11/16 05:17:08;;;;;;;0.00;0.00;;;;;;;;;;5095627;28;20233;-78
2022/11/16 05:22:23;;;;;;;0.00;0.00;;;;;;;;;;5095525;28;20733;-78
2022/11/16 05:24:52;;;;;;;0.00;0.00;;;;;;;;;;5094959;28;20686;-79
2022/11/16 05:27:21;;;;;;;0.00;0.00;;;;;;;;;;5094911;28;20332;-79
2022/11/16 05:29:51;;;;;;;0.00;0.00;;;;;;;;;;5095018;28;20242;-79
2022/11/16 05:32:20;;;;;;;0.00;0.00;;;;;;;;;;5094488;28;20218;-80
2022/11/16 05:34:49;;;;;;;0.00;0.00;;;;;;;;;;5095456;28;20617;-80
2022/11/16 05:37:18;;;;;;;0.00;0.00;;;;;;;;;;5095421;28;20224;-80
2022/11/16 05:39:46;;;;;;;0.00;0.00;;;;;;;;;;5096311;28;20201;-79
2022/11/16 05:42:14;;;;;;;0.00;0.00;;;;;;;;;;5095515;28;20239;-80
2022/11/16 05:44:43;;;;;;;0.00;0.00;;;;;;;;;;5095840;28;20229;-80
2022/11/16 05:47:13;;;;;;;0.00;0.00;;;;;;;;;;5095239;28;20616;-80
2022/11/16 05:49:41;;;;;;;0.00;0.00;;;;;;;;;;5095277;28;20287;-80
2022/11/16 05:52:10;;;;;;;0.00;0.00;;;;;;;;;;5095268;28;20266;-80
2022/11/16 05:54:38;;;;;;;0.00;0.00;;;;;;;;;;5094860;28;20714;-80
2022/11/16 05:57:07;;;;;;;0.00;0.00;;;;;;;;;;5094759;28;20241;-80
2022/11/16 05:59:35;;;;;;;0.00;0.00;;;;;;;;;;5094921;28;20218;-80
2022/11/16 06:02:04;;;;;;;0.00;0.00;;;;;;;;;;5095474;28;20218;-80
2022/11/16 06:04:34;;;;;;;0.00;0.00;;;;;;;;;;5095318;28;20202;-80
2022/11/16 06:07:03;;;;;;;0.00;0.00;;;;;;;;;;5095567;28;20233;-78
2022/11/16 06:09:31;;;;;;;0.00;0.00;;;;;;;;;;5095028;28;20209;-80
2022/11/16 06:12:00;;;;;;;0.00;0.00;;;;;;;;;;5094586;28;20217;-77
2022/11/16 06:14:28;;;;;;;0.00;0.00;;;;;;;;;;5094203;28;20292;-78
2022/11/16 06:16:57;;;;;;;0.00;0.00;;;;;;;;;;5094411;28;20263;-78
2022/11/16 06:19:25;;;;;;;0.00;0.00;;;;;;;;;;5094427;28;20229;-80
2022/11/16 06:22:01;;;;;;;0.00;0.00;;;;;;;;;;5093957;28;20222;-79
2022/11/16 06:24:29;;;;;;;0.00;0.00;;;;;;;;;;5093497;28;20209;-77
2022/11/16 06:26:57;;;;;;;0.00;0.00;;;;;;;;;;5094037;28;20636;-77
2022/11/16 06:29:26;;;;;;;0.00;0.00;;;;;;;;;;5093208;28;20405;-77
2022/11/16 06:31:54;;;;;;;0.00;0.00;;;;;;;;;;5094317;28;20761;-79
2022/11/16 06:34:23;;;;;;;0.00;0.00;;;;;;;;;;5094349;28;20234;-78
2022/11/16 06:36:51;;;;;;;0.00;0.00;;;;;;;;;;5094720;28;20622;-78
2022/11/16 06:39:21;;;;;;;0.00;0.00;;;;;;;;;;5094103;28;20206;-78
2022/11/16 06:41:50;;;;;;;0.00;0.00;;;;;;;;;;5094295;28;20226;-77
2022/11/16 06:44:18;;;;;;;0.00;0.00;;;;;;;;;;5094009;28;20725;-78
2022/11/16 06:46:47;;;;;;;0.00;0.00;;;;;;;;;;5094017;28;20237;-76
2022/11/16 06:49:15;;;;;;;0.00;0.00;;;;;;;;;;5093381;28;20612;-77
2022/11/16 06:51:44;;;;;;;0.00;0.00;;;;;;;;;;5093629;28;20198;-77
2022/11/16 06:54:12;;;;;;;0.00;0.00;;;;;;;;;;5093489;28;20626;-79
2022/11/16 06:56:42;;;;;;;0.00;0.00;;;;;;;;;;5093831;28;20233;-78
2022/11/16 06:59:11;;;;;;;0.00;0.00;;;;;;;;;;5092989;28;20244;-77
2022/11/16 07:01:39;;;;;;;0.00;0.00;;;;;;;;;;5093994;28;20256;-77
2022/11/16 07:04:10;;;;;;;0.00;0.00;;;;;;;;;;5093652;28;20271;-77
2022/11/16 07:06:39;;;;;;;0.00;0.00;;;;;;;;;;5093553;28;20227;-77
2022/11/16 07:09:08;;;;;;;0.00;0.00;;;;;;;;;;5094171;28;20193;-78
2022/11/16 07:11:37;;;;;;;0.00;0.00;;;;;;;;;;5093399;28;20208;-78
2022/11/16 07:14:07;;;;;;;0.00;0.00;;;;;;;;;;5093637;28;20234;-77
2022/11/16 07:16:35;;;;;;;0.00;0.00;;;;;;;;;;5093983;28;20252;-77
2022/11/16 07:19:04;;;;;;;0.00;0.00;;;;;;;;;;5093652;28;20238;-78
2022/11/16 07:21:33;;;;;;;0.00;0.00;;;;;;;;;;5093440;28;20206;-77
2022/11/16 07:24:01;;;;;;;0.00;0.00;;;;;;;;;;5093730;28;20265;-77
2022/11/16 07:26:30;;;;;;;0.00;0.00;;;;;;;;;;5093550;28;20251;-79
2022/11/16 07:28:58;;;;;;;0.00;0.00;;;;;;;;;;5093361;28;20225;-78
2022/11/16 07:31:28;;;;;;;0.00;0.00;;;;;;;;;;5093168;28;20256;-78
2022/11/16 07:33:57;;;;;;;0.00;0.00;;;;;;;;;;5093166;28;20221;-78
2022/11/16 07:36:25;;;;;;;0.00;0.00;;;;;;;;;;5093896;28;20259;-78
2022/11/16 07:38:54;;;;;;;0.00;0.00;;;;;;;;;;5093715;28;20654;-78
2022/11/16 07:41:22;;;;;;;0.00;0.00;;;;;;;;;;5093133;28;20205;-78
2022/11/16 07:43:51;;;;;;;0.00;0.00;;;;;;;;;;5092959;28;20257;-78
2022/11/16 07:46:22;;;;;;;0.00;0.00;;;;;;;;;;5093093;28;20198;-79
2022/11/16 07:49:14;;;;;;;0.00;0.00;;;;;;;;;;5092933;28;20212;-77
2022/11/16 07:51:43;;;;;;;0.00;0.00;;;;;;;;;;5093075;28;20235;-79
2022/11/16 07:54:12;;;;;;;0.00;0.00;;;;;;;;;;5093361;28;20251;-78
2022/11/16 07:56:40;;;;;;;0.00;0.00;;;;;;;;;;5093066;28;20233;-78
2022/11/16 07:59:09;;;;;;;0.00;0.00;;;;;;;;;;5093945;28;20288;-79
2022/11/16 08:01:37;;;;;;;0.00;0.00;;;;;;;;;;5096622;28;20229;-79
2022/11/16 08:04:06;;;;;;;0.00;0.00;;;;;;;;;;5096898;28;20685;-78
2022/11/16 08:06:36;;;;;;;0.00;0.00;;;;;;;;;;5096749;28;20241;-78
2022/11/16 08:09:04;;;;;;;0.00;0.00;;;;;;;;;;5096895;28;20288;-78
2022/11/16 08:11:33;;;;;;;0.00;0.00;;;;;;;;;;5096481;28;20663;-80
2022/11/16 08:14:01;;;;;;;0.00;0.00;;;;;;;;;;5096577;28;20198;-80
2022/11/16 08:16:32;;;;;;;0.00;0.00;;;;;;;;;;5096640;28;20237;-79
2022/11/16 08:19:01;;;;;;;0.00;0.00;;;;;;;;;;5096709;28;20285;-78
2022/11/16 08:21:29;;;;;;;0.00;0.00;;;;;;;;;;5096246;28;20208;-78
2022/11/16 08:23:59;;;;;;;0.00;0.00;;;;;;;;;;5096154;28;20225;-79
2022/11/16 08:26:28;;;;;;;0.00;0.00;;;;;;;;;;5096824;28;20209;-76
2022/11/16 08:28:56;;;;;;;0.00;0.00;;;;;;;;;;5096647;28;20194;-77
2022/11/16 08:31:26;;;;;;;0.00;0.00;;;;;;;;;;5096736;28;20206;-76
2022/11/16 08:33:55;;;;;;;0.00;0.00;;;;;;;;;;5096884;28;20243;-77
2022/11/16 08:36:24;;;;;;;0.00;0.00;;;;;;;;;;5096422;28;20261;-77
2022/11/16 08:38:52;;;;;;;0.00;0.00;;;;;;;;;;5096778;28;20667;-77
2022/11/16 08:41:22;;;;;;;0.00;0.00;;;;;;;;;;5096679;28;20223;-77
2022/11/16 08:43:52;;;;;;;0.00;0.00;;;;;;;;;;5096214;28;20218;-77
2022/11/16 08:46:21;;;;;;;0.00;0.00;;;;;;;;;;5096071;28;20213;-77
2022/11/16 08:48:50;;;;;;;0.00;0.00;;;;;;;;;;5096134;28;20206;-77
2022/11/16 08:51:18;;;;;;;0.00;0.00;;;;;;;;;;5093471;28;20217;-77
2022/11/16 08:53:48;;;;;;;0.00;0.00;;;;;;;;;;5079615;28;20281;-77
2022/11/16 08:56:18;;;;;;;0.00;0.00;;;;;;;;;;5096012;28;20212;-77
2022/11/16 08:58:47;;;;;;;0.00;0.00;;;;;;;;;;5095788;28;20247;-77
2022/11/16 09:01:24;;;;;;;0.00;0.00;;;;;;;;;;5096298;28;20650;-77
2022/11/16 09:03:53;;;;;;;0.00;0.00;;;;;;;;;;5096498;28;20226;-77
2022/11/16 09:06:22;;;;;;;0.00;0.00;;;;;;;;;;5095322;28;20247;-77
2022/11/16 09:08:51;;;;;;;0.00;0.00;;;;;;;;;;5096135;28;20573;-76
2022/11/16 09:11:20;;;;;;;0.00;0.00;;;;;;;;;;5095255;28;20198;-77
2022/11/16 09:13:51;;;;;;;0.00;0.00;;;;;;;;;;5095880;28;20233;-77
2022/11/16 09:16:19;;;;;;;0.00;0.00;;;;;;;;;;5096127;28;20304;-77
2022/11/16 09:18:48;;;;;;;0.00;0.00;;;;;;;;;;5095715;28;20197;-77
2022/11/16 09:21:18;;;;;;;0.00;0.00;;;;;;;;;;5095213;28;20234;-77
2022/11/16 09:23:47;;;;;;;0.00;0.00;;;;;;;;;;5095328;28;20226;-77
2022/11/16 09:26:19;;;;;;;0.00;0.00;;;;;;;;;;5095380;28;20204;-77
2022/11/16 09:28:54;;;;;;;0.00;0.00;;;;;;;;;;5095166;28;20229;-77
2022/11/16 09:31:23;;;;;;;0.00;0.00;;;;;;;;;;5095317;28;20591;-77
2022/11/16 09:33:51;;;;;;;0.00;0.00;;;;;;;;;;5095418;28;20366;-77
2022/11/16 09:36:20;;;;;;;0.00;0.00;;;;;;;;;;5095145;28;20292;-76
2022/11/16 09:38:49;;;;;;;0.00;0.00;;;;;;;;;;5095297;28;20686;-77
2022/11/16 09:41:51;;;;;;;0.00;0.00;;;;;;;;;;5094849;28;20212;-77
2022/11/16 09:44:31;;;;;;;0.00;0.00;;;;;;;;;;5095054;28;20618;-79
2022/11/16 09:47:00;;;;;;;0.00;0.00;;;;;;;;;;5095359;28;20642;-79
2022/11/16 09:49:30;;;;;;;0.00;0.00;;;;;;;;;;5095652;28;20304;-78
2022/11/16 09:52:01;;;;;;;0.00;0.00;;;;;;;;;;5095497;28;20671;-78
2022/11/16 09:54:31;;;;;;;0.00;0.00;;;;;;;;;;5095267;28;20626;-78
2022/11/16 09:57:00;;;;;;;0.00;0.00;;;;;;;;;;5095028;28;20227;-78
2022/11/16 09:59:34;;;;;;;0.00;0.00;;;;;;;;;;5095483;28;20201;-78
2022/11/16 10:02:05;;;;;;;0.00;0.00;;;;;;;;;;5095243;28;20222;-78
2022/11/16 10:04:39;;;;;;;0.00;0.00;;;;;;;;;;5095259;28;20248;-77
2022/11/16 10:07:09;;;;;;;0.00;0.00;;;;;;;;;;5095120;28;20611;-77
2022/11/16 10:09:37;;;;;;;0.00;0.00;;;;;;;;;;5094902;28;20643;-78
2022/11/16 10:12:12;;;;;;;0.00;0.00;;;;;;;;;;5095375;28;20622;-78
2022/11/16 10:14:49;;;;;;;0.00;0.00;;;;;;;;;;5094744;28;20177;-78
2022/11/16 10:17:23;;;;;;;0.00;0.00;;;;;;;;;;5095044;28;20623;-78
2022/11/16 10:19:54;;;;;;;0.00;0.00;;;;;;;;;;5094827;28;20233;-78
2022/11/16 10:22:30;;;;;;;0.00;0.00;;;;;;;;;;5093897;28;20283;-79
2022/11/16 10:24:59;;;;;;;0.00;0.00;;;;;;;;;;5094374;28;20286;-79
2022/11/16 10:27:37;;;;;;;0.00;0.00;;;;;;;;;;5094605;28;20229;-78
2022/11/16 10:30:12;;;;;;;0.00;0.00;;;;;;;;;;5094949;28;20260;-78
2022/11/16 10:32:47;;;;;;;0.00;0.00;;;;;;;;;;5094960;28;20689;-78
2022/11/16 10:35:19;;;;;;;0.00;0.00;;;;;;;;;;5094590;28;20208;-78
2022/11/16 10:37:49;;;;;;;0.00;0.00;;;;;;;;;;5094858;28;20258;-77
2022/11/16 10:40:20;;;;;;;0.00;0.00;;;;;;;;;;5095099;28;20201;-79
2022/11/16 10:42:51;;;;;;;0.00;0.00;;;;;;;;;;5094312;28;20694;-77
2022/11/16 10:45:23;;;;;;;0.00;0.00;;;;;;;;;;5094540;28;20233;-78
2022/11/16 10:47:54;;;;;;;0.00;0.00;;;;;;;;;;5094609;28;20221;-77
2022/11/16 10:50:31;;;;;;;0.00;0.00;;;;;;;;;;5094661;28;20198;-78
2022/11/16 10:53:00;;;;;;;0.00;0.00;;;;;;;;;;5094798;28;20250;-78
2022/11/16 10:55:29;;;;;;;0.00;0.00;;;;;;;;;;5094323;28;20235;-78
2022/11/16 10:57:59;;;;;;;0.00;0.00;;;;;;;;;;5094036;28;20197;-77
2022/11/16 11:00:40;;;;;;;0.00;0.00;;;;;;;;;;5094759;28;20202;-76
2022/11/16 11:03:09;;;;;;;0.00;0.00;;;;;;;;;;5094495;28;20232;-77
2022/11/16 11:05:46;;;;;;;0.00;0.00;;;;;;;;;;5094081;28;20218;-78
2022/11/16 11:08:24;;;;;;;0.00;0.00;;;;;;;;;;5094727;28;20601;-76
2022/11/16 11:11:00;;;;;;;0.00;0.00;;;;;;;;;;5094215;28;20240;-77
2022/11/16 11:13:29;;;;;;;0.00;0.00;;;;;;;;;;5093509;28;20257;-77
2022/11/16 11:16:12;;;;;;;0.00;0.00;;;;;;;;;;5094129;28;20206;-77
2022/11/16 11:18:42;;;;;;;0.00;0.00;;;;;;;;;;5094617;28;20182;-77
2022/11/16 11:21:14;;;;;;;0.00;0.00;;;;;;;;;;5094305;28;20691;-78
2022/11/16 11:23:44;;;;;;;0.00;0.00;;;;;;;;;;5094051;28;20253;-78
2022/11/16 11:26:26;;;;;;;0.00;0.00;;;;;;;;;;5093900;28;20661;-79
2022/11/16 11:29:06;;;;;;;0.00;0.00;;;;;;;;;;5094306;28;20261;-78
2022/11/16 11:31:35;;;;;;;0.00;0.00;;;;;;;;;;5094166;28;20576;-78
2022/11/16 11:34:15;;;;;;;0.00;0.00;;;;;;;;;;5095076;28;20231;-78
2022/11/16 11:36:47;;;;;;;0.00;0.00;;;;;;;;;;5097709;28;20627;-78
2022/11/16 11:39:32;;;;;;;0.00;0.00;;;;;;;;;;5097685;28;20221;-79
2022/11/16 11:42:02;;;;;;;0.00;0.00;;;;;;;;;;5098153;28;20221;-78
2022/11/16 11:44:32;;;;;;;0.00;0.00;;;;;;;;;;5097982;28;20240;-79
2022/11/16 11:47:07;;;;;;;0.00;0.00;;;;;;;;;;5097683;28;20653;-78
2022/11/16 11:49:59;;;;;;;0.00;0.00;;;;;;;;;;5097507;28;20206;-78
2022/11/16 11:52:31;;;;;;;0.00;0.00;;;;;;;;;;5097175;28;20252;-77
2022/11/16 11:55:01;;;;;;;0.00;0.00;;;;;;;;;;5097707;28;20274;-79
2022/11/16 11:57:32;;;;;;;0.00;0.00;;;;;;;;;;5097421;28;20205;-78
2022/11/16 12:00:01;;;;;;;0.00;0.00;;;;;;;;;;5097042;28;20186;-78
2022/11/16 12:02:39;;;;;;;0.00;0.00;;;;;;;;;;5097509;28;20717;-78
2022/11/16 12:05:46;;;;;;;0.00;0.00;;;;;;;;;;5097602;28;20684;-79
2022/11/16 12:08:20;;;;;;;0.00;0.00;;;;;;;;;;5097144;28;20229;-79
2022/11/16 12:10:51;;;;;;;0.00;0.00;;;;;;;;;;5097162;28;20232;-79
2022/11/16 12:13:29;;;;;;;0.00;0.00;;;;;;;;;;5097169;28;20214;-79
2022/11/16 12:16:07;;;;;;;0.00;0.00;;;;;;;;;;5078990;28;20210;-80
2022/11/16 12:18:43;;;;;;;0.00;0.00;;;;;;;;;;5088390;28;20267;-78
2022/11/16 12:21:14;;;;;;;0.00;0.00;;;;;;;;;;5097166;28;20763;-78
2022/11/16 12:23:55;;;;;;;0.00;0.00;;;;;;;;;;5096999;28;20217;-79
2022/11/16 12:26:28;;;;;;;0.00;0.00;;;;;;;;;;5096901;28;20251;-79
2022/11/16 12:29:01;;;;;;;0.00;0.00;;;;;;;;;;5097197;28;20767;-78
2022/11/16 12:31:44;;;;;;;0.00;0.00;;;;;;;;;;5097313;28;20601;-79
2022/11/16 12:34:16;;;;;;;0.00;0.00;;;;;;;;;;5097018;28;20225;-78
2022/11/16 12:36:52;;;;;;;0.00;0.00;;;;;;;;;;5096675;28;20229;-78
2022/11/16 12:39:23;;;;;;;0.00;0.00;;;;;;;;;;5096290;28;20372;-78
2022/11/16 12:42:08;;;;;;;0.00;0.00;;;;;;;;;;5097053;28;20237;-78
2022/11/16 12:44:43;;;;;;;0.00;0.00;;;;;;;;;;5096522;28;20291;-79
2022/11/16 12:47:16;;;;;;;0.00;0.00;;;;;;;;;;5095106;28;20209;-78
2022/11/16 12:49:53;;;;;;;0.00;0.00;;;;;;;;;;5096333;28;20206;-79
2022/11/16 12:52:28;;;;;;;0.00;0.00;;;;;;;;;;5096073;28;20253;-79
2022/11/16 12:55:07;;;;;;;0.00;0.00;;;;;;;;;;5096448;28;20642;-79
2022/11/16 12:58:02;;;;;;;0.00;0.00;;;;;;;;;;5096556;28;20224;-79
2022/11/16 13:00:33;;;;;;;0.00;0.00;;;;;;;;;;5096584;28;20196;-79
2022/11/16 13:03:11;;;;;;;0.00;0.00;;;;;;;;;;5096422;28;20246;-79
2022/11/16 13:05:56;;;;;;;0.00;0.00;;;;;;;;;;5096339;28;20190;-79
2022/11/16 13:08:33;;;;;;;0.00;0.00;;;;;;;;;;5096166;28;20182;-79
2022/11/16 13:11:03;;;;;;;0.00;0.00;;;;;;;;;;5096079;28;20181;-79
2022/11/16 13:13:32;;;;;;;0.00;0.00;;;;;;;;;;5096499;28;20709;-79
2022/11/16 13:16:06;;;;;;;0.00;0.00;;;;;;;;;;5095819;28;20189;-79
2022/11/16 13:18:35;;;;;;;0.00;0.00;;;;;;;;;;5096125;28;20233;-78
2022/11/16 13:21:06;;;;;;;0.00;0.00;;;;;;;;;;5096175;28;20233;-79
2022/11/16 13:23:43;;;;;;;0.00;0.00;;;;;;;;;;5095911;28;20280;-79
2022/11/16 13:26:16;;;;;;;0.00;0.00;;;;;;;;;;5095840;28;20202;-79
2022/11/16 13:28:51;;;;;;;0.00;0.00;;;;;;;;;;5096521;28;20297;-79
2022/11/16 13:31:21;;;;;;;0.00;0.00;;;;;;;;;;5095726;28;20248;-79
2022/11/16 13:33:50;;;;;;;0.00;0.00;;;;;;;;;;5096104;28;20233;-79
2022/11/16 13:36:42;;;;;;;0.00;0.00;;;;;;;;;;5096160;28;20247;-80
2022/11/16 13:39:12;;;;;;;0.00;0.00;;;;;;;;;;5095855;28;20214;-79
2022/11/16 13:41:49;;;;;;;0.00;0.00;;;;;;;;;;5095840;28;20231;-79
2022/11/16 13:44:29;;;;;;;0.00;0.00;;;;;;;;;;5095948;28;20202;-79
2022/11/16 13:47:03;;;;;;;0.00;0.00;;;;;;;;;;5095942;28;20241;-79
2022/11/16 13:49:33;;;;;;;0.00;0.00;;;;;;;;;;5095954;28;20266;-79
2022/11/16 13:52:03;;;;;;;0.00;0.00;;;;;;;;;;5095303;28;20257;-79
2022/11/16 13:54:52;;;;;;;0.00;0.00;;;;;;;;;;5094892;28;20213;-79
2022/11/16 13:57:23;;;;;;;0.00;0.00;;;;;;;;;;5095669;28;20246;-79
2022/11/16 13:59:56;;;;;;;0.00;0.00;;;;;;;;;;5094312;28;20190;-80
2022/11/16 14:02:32;;;;;;;0.00;0.00;;;;;;;;;;5094461;28;20261;-79
2022/11/16 14:05:02;;;;;;;0.00;0.00;;;;;;;;;;5094310;28;20182;-79
2022/11/16 14:07:35;;;;;;;0.00;0.00;;;;;;;;;;5094160;28;20323;-79
2022/11/16 14:10:06;;;;;;;0.00;0.00;;;;;;;;;;5094305;28;20190;-79
2022/11/16 14:12:56;;;;;;;0.00;0.00;;;;;;;;;;5094063;28;20229;-79
2022/11/16 14:15:28;;;;;;;0.00;0.00;;;;;;;;;;5094299;28;20646;-79
2022/11/16 14:17:58;;;;;;;0.00;0.00;;;;;;;;;;5093845;28;20217;-78
2022/11/16 14:20:42;;;;;;;0.00;0.00;;;;;;;;;;5093273;28;20237;-78
2022/11/16 14:23:14;;;;;;;0.00;0.00;;;;;;;;;;5081795;28;20230;-79
2022/11/16 14:25:47;;;;;;;0.00;0.00;;;;;;;;;;5093444;28;20275;-78
2022/11/16 14:28:31;;;;;;;0.00;0.00;;;;;;;;;;5090967;28;20263;-78
2022/11/16 14:31:07;;;;;;;7.10;5.67;;;;;;;;;;5077989;28;20289;-79
2022/11/16 14:33:36;;;;;;;0.57;0.57;;;;;;;;;;5073384;28;20299;-79
2022/11/16 14:36:07;;;;;;;0.00;0.00;;;;;;;;;;5073633;28;20302;-78
2022/11/16 14:38:36;;;;;;;0.00;0.00;;;;;;;;;;5073900;28;20224;-79
2022/11/16 14:41:20;;;;;;;0.00;0.00;;;;;;;;;;5073625;28;20236;-79
2022/11/16 14:43:51;;;;;;;0.00;0.00;;;;;;;;;;5072008;28;20265;-79
2022/11/16 14:46:24;;;;;;;0.00;0.00;;;;;;;;;;5073370;28;20190;-79
2022/11/16 14:48:55;;;;;;;0.00;0.00;;;;;;;;;;5073324;28;20186;-78
2022/11/16 14:51:27;;;;;;;0.00;0.00;;;;;;;;;;5085332;28;20247;-79
2022/11/16 14:53:57;;;;;;;0.00;0.00;;;;;;;;;;5093403;28;20186;-78
2022/11/16 14:56:26;;;;;;;0.00;0.00;;;;;;;;;;5083021;28;20241;-78
2022/11/16 14:58:57;;;;;;;0.00;0.00;;;;;;;;;;5072822;28;20246;-78
2022/11/16 15:01:28;;;;;;;0.00;0.00;;;;;;;;;;5073778;28;20218;-79
2022/11/16 15:04:01;;;;;;;0.00;0.00;;;;;;;;;;5073483;28;20291;-78
2022/11/16 15:06:30;;;;;;;0.00;0.00;;;;;;;;;;5083046;28;20203;-78
2022/11/16 15:09:01;;;;;;;0.00;0.00;;;;;;;;;;5073329;28;20651;-78
2022/11/16 15:14:15;;;;;;;0.00;0.00;;;;;;;;;;5091609;28;20216;-78
2022/11/16 15:16:50;;;;;;;0.00;0.00;;;;;;;;;;5097762;28;20606;-78
2022/11/16 15:19:19;;;;;;;0.00;0.00;;;;;;;;;;5098137;28;20190;-79
2022/11/16 15:21:52;;;;;;;0.00;0.00;;;;;;;;;;5077386;28;20248;-79
2022/11/16 15:24:24;;;;;;;0.00;0.00;;;;;;;;;;5077260;28;20237;-78
2022/11/16 15:27:02;;;;;;;0.00;0.00;;;;;;;;;;5078905;28;20194;-78
2022/11/16 15:29:31;;;;;;;0.00;0.00;;;;;;;;;;5077419;28;20221;-78
2022/11/16 15:32:01;;;;;;;0.00;0.00;;;;;;;;;;5077790;28;20659;-78
2022/11/16 15:34:29;;;;;;;0.00;0.00;;;;;;;;;;5077245;28;20280;-78
2022/11/16 15:36:58;;;;;;;0.00;0.00;;;;;;;;;;5077926;28;20251;-78
2022/11/16 15:39:29;;;;;;;0.00;0.00;;;;;;;;;;5077761;28;20203;-78
2022/11/16 15:41:57;;;;;;;0.00;0.00;;;;;;;;;;5077825;28;20230;-78
2022/11/16 15:44:32;;;;;;;0.00;0.00;;;;;;;;;;5078083;28;20248;-79
2022/11/16 15:47:03;;;;;;;0.00;0.00;;;;;;;;;;5078380;28;20619;-78
2022/11/16 15:49:33;;;;;;;0.00;0.00;;;;;;;;;;5077814;28;20229;-78
2022/11/16 15:52:01;;;;;;;0.00;0.00;;;;;;;;;;5077530;28;20257;-77
2022/11/16 15:55:02;;;;;;;0.00;0.00;;;;;;;;;;5077786;28;20234;-77
2022/11/16 15:57:21;;;;;;;0.00;0.00;;;;;;;;;;5077305;28;20206;-78
2022/11/16 15:59:53;;;;;;;0.00;0.00;;;;;;;;;;5077788;28;20624;-78
2022/11/16 16:02:24;;;;;;;0.00;0.00;;;;;;;;;;5077021;28;20291;-78
2022/11/16 16:04:53;;;;;;;0.00;0.00;;;;;;;;;;5077550;28;20210;-79
2022/11/16 16:07:37;;;;;;;0.00;0.00;;;;;;;;;;5089489;28;20222;-79
2022/11/16 16:10:13;;;;;;;0.00;0.00;;;;;;;;;;5078385;28;20639;-79
2022/11/16 16:12:47;;;;;;;0.00;0.00;;;;;;;;;;5078230;28;20233;-78
2022/11/16 16:15:23;;;;;;;0.00;0.00;;;;;;;;;;5077562;28;20182;-79
2022/11/16 16:17:54;;;;;;;0.00;0.00;;;;;;;;;;5076978;28;20202;-79
2022/11/16 16:20:24;;;;;;;0.00;0.00;;;;;;;;;;5076574;28;20212;-79
2022/11/16 16:22:53;;;;;;;0.00;0.00;;;;;;;;;;5076284;28;20309;-79
2022/11/16 16:25:29;;;;;;;0.00;0.00;;;;;;;;;;5084976;28;20225;-79
2022/11/16 16:27:58;;;;;;;0.00;0.00;;;;;;;;;;5096211;28;20240;-79
2022/11/16 16:30:26;;;;;;;0.00;0.00;;;;;;;;;;5096609;28;20289;-79